createdAt,value
2023-03-01T00:01:22.356Z,85.78
2023-03-01T00:03:49.616Z,97.37
2023-03-01T00:06:16.998Z,90.60
2023-03-01T00:08:43.920Z,88.30
2023-03-01T00:11:13.907Z,86.83
2023-03-01T00:13:42.057Z,73.43
2023-03-01T00:16:14.029Z,71.22
2023-03-01T00:18:41.444Z,71.93
2023-03-01T00:21:08.764Z,75.57
2023-03-01T00:23:36.320Z,82.37
2023-03-01T00:26:07.417Z,82.13
2023-03-01T00:28:35.450Z,76.93
2023-03-01T00:31:10.599Z,76.30
2023-03-01T00:33:37.523Z,76.17
2023-03-01T00:36:05.091Z,73.90
2023-03-01T00:38:35.224Z,74.43
2023-03-01T00:41:10.265Z,74.77
2023-03-01T00:43:40.179Z,80.07
2023-03-01T00:46:15.195Z,84.87
2023-03-01T00:48:42.631Z,86.37
2023-03-01T00:51:13.232Z,76.73
2023-03-01T00:53:40.451Z,81.07
2023-03-01T00:56:09.719Z,66.10
2023-03-01T00:58:36.961Z,69.67
2023-03-01T01:01:20.861Z,79.63
2023-03-01T01:03:50.891Z,86.20
2023-03-01T01:06:23.863Z,78.77
2023-03-01T01:08:51.541Z,79.80
2023-03-01T01:11:19.262Z,78.45
2023-03-01T01:13:48.159Z,63.30
2023-03-01T01:16:16.549Z,72.60
2023-03-01T01:18:44.184Z,82.30
2023-03-01T01:21:14.865Z,74.70
2023-03-01T01:23:43.392Z,83.03
2023-03-01T01:28:38.912Z,75.72
2023-03-01T01:31:06.426Z,70.17
2023-03-01T01:33:34.090Z,90.30
2023-03-01T01:36:01.465Z,77.03
2023-03-01T01:38:28.449Z,72.13
2023-03-01T01:40:55.784Z,73.10
2023-03-01T01:43:26.878Z,76.13
2023-03-01T01:45:58.211Z,71.47
2023-03-01T01:48:41.298Z,75.77
2023-03-01T01:51:18.163Z,75.80
2023-03-01T01:53:47.917Z,79.90
2023-03-01T01:56:18.029Z,71.87
2023-03-01T01:58:45.963Z,71.13
2023-03-01T02:01:13.157Z,69.53
2023-03-01T02:03:43.433Z,73.77
2023-03-01T02:06:30.183Z,72.57
2023-03-01T02:09:03.539Z,67.47
2023-03-01T02:11:33.314Z,63.77
2023-03-01T02:16:28.149Z,63.27
2023-03-01T02:18:55.289Z,76.07
2023-03-01T02:21:25.295Z,73.83
2023-03-01T02:23:52.306Z,81.63
2023-03-01T02:26:46.635Z,72.93
2023-03-01T02:29:13.747Z,63.83
2023-03-01T02:31:43.779Z,77.83
2023-03-01T02:34:17.950Z,71.43
2023-03-01T02:36:56.092Z,71.63
2023-03-01T02:39:27.784Z,72.88
2023-03-01T02:41:57.211Z,63.50
2023-03-01T02:44:24.435Z,68.83
2023-03-01T02:46:55.376Z,58.53
2023-03-01T02:49:26.171Z,68.83
2023-03-01T02:52:09.702Z,59.70
2023-03-01T02:54:45.594Z,63.93
2023-03-01T02:57:13.215Z,63.07
2023-03-01T02:59:41.297Z,68.97
2023-03-01T03:02:21.667Z,64.10
2023-03-01T03:04:48.744Z,63.47
2023-03-01T03:07:15.881Z,69.70
2023-03-01T03:09:42.783Z,62.77
2023-03-01T03:12:10.007Z,70.53
2023-03-01T03:14:36.890Z,72.13
2023-03-01T03:17:07.666Z,67.23
2023-03-01T03:19:34.618Z,61.87
2023-03-01T03:22:02.850Z,66.03
2023-03-01T03:24:29.799Z,64.60
2023-03-01T03:26:56.986Z,69.83
2023-03-01T03:29:23.828Z,72.83
2023-03-01T03:31:51.121Z,71.37
2023-03-01T03:34:19.122Z,69.73
2023-03-01T03:36:46.452Z,67.70
2023-03-01T03:39:13.362Z,65.30
2023-03-01T03:41:40.516Z,79.60
2023-03-01T03:44:07.394Z,76.87
2023-03-01T03:46:34.997Z,68.60
2023-03-01T03:49:01.997Z,74.47
2023-03-01T03:51:29.137Z,68.57
2023-03-01T03:53:56.047Z,63.67
2023-03-01T03:56:28.654Z,62.90
2023-03-01T03:58:55.952Z,83.57
2023-03-01T04:01:23.375Z,78.43
2023-03-01T04:03:55.476Z,76.83
2023-03-01T04:06:22.924Z,79.83
2023-03-01T04:08:52.115Z,74.53
2023-03-01T04:11:28.219Z,78.60
2023-03-01T04:13:58.021Z,75.27
2023-03-01T04:16:26.119Z,79.30
2023-03-01T04:18:57.712Z,72.50
2023-03-01T04:21:24.892Z,62.00
2023-03-01T04:23:53.706Z,70.27
2023-03-01T04:26:21.589Z,69.17
2023-03-01T04:28:50.463Z,71.40
2023-03-01T04:31:22.108Z,74.17
2023-03-01T04:33:54.577Z,82.87
2023-03-01T04:36:27.804Z,78.60
2023-03-01T04:38:55.592Z,77.57
2023-03-01T04:41:25.144Z,56.75
2023-03-01T04:43:52.298Z,83.53
2023-03-01T04:46:21.046Z,82.00
2023-03-01T04:48:48.482Z,76.97
2023-03-01T04:51:16.806Z,75.57
2023-03-01T04:53:44.769Z,71.32
2023-03-01T04:56:12.563Z,64.05
2023-03-01T04:58:39.433Z,72.57
2023-03-01T05:01:16.518Z,74.27
2023-03-01T05:03:45.177Z,78.63
2023-03-01T05:06:12.958Z,82.10
2023-03-01T05:08:40.791Z,72.43
2023-03-01T05:11:10.117Z,73.93
2023-03-01T05:13:39.102Z,59.77
2023-03-01T05:16:08.168Z,80.27
2023-03-01T05:18:36.008Z,73.00
2023-03-01T05:21:09.556Z,81.60
2023-03-01T05:23:37.313Z,79.50
2023-03-01T05:26:09.411Z,76.88
2023-03-01T05:28:38.996Z,89.30
2023-03-01T05:31:10.747Z,96.00
2023-03-01T05:33:39.199Z,94.90
2023-03-01T05:36:08.345Z,103.35
2023-03-01T05:41:02.836Z,96.80
2023-03-01T05:43:35.350Z,89.83
2023-03-01T05:46:02.813Z,84.90
2023-03-01T05:48:30.189Z,82.53
2023-03-01T05:51:01.442Z,99.30
2023-03-01T05:53:28.642Z,72.73
2023-03-01T05:55:55.771Z,62.33
2023-03-01T05:58:22.833Z,66.07
2023-03-01T06:00:50.351Z,55.20
2023-03-01T06:03:18.721Z,60.13
2023-03-01T06:08:14.134Z,71.90
2023-03-01T06:10:41.898Z,76.95
2023-03-01T06:13:09.013Z,74.43
2023-03-01T06:15:36.400Z,68.20
2023-03-01T06:18:03.441Z,86.07
2023-03-01T06:20:30.740Z,90.43
2023-03-01T06:22:58.254Z,65.33
2023-03-01T06:25:27.843Z,67.03
2023-03-01T06:27:54.953Z,67.33
2023-03-01T06:30:24.034Z,56.83
2023-03-01T06:32:51.014Z,58.55
2023-03-01T06:35:19.687Z,62.57
2023-03-01T06:37:48.224Z,61.70
2023-03-01T06:40:17.134Z,66.10
2023-03-01T06:42:48.296Z,60.25
2023-03-01T06:45:16.165Z,60.00
2023-03-01T06:47:43.204Z,58.43
2023-03-01T06:50:11.577Z,60.83
2023-03-01T06:52:38.766Z,65.20
2023-03-01T06:55:06.859Z,61.03
2023-03-01T06:57:33.842Z,58.70
2023-03-01T07:00:01.208Z,53.88
2023-03-01T07:02:28.246Z,54.60
2023-03-01T07:04:55.494Z,48.05
2023-03-01T07:07:22.465Z,45.58
2023-03-01T07:09:50.025Z,47.08
2023-03-01T07:12:17.388Z,44.33
2023-03-01T07:14:45.232Z,41.80
2023-03-01T07:17:12.082Z,38.03
2023-03-01T07:19:39.323Z,40.53
2023-03-01T07:22:08.850Z,41.45
2023-03-01T07:24:36.366Z,33.90
2023-03-01T07:27:03.516Z,40.85
2023-03-01T07:29:31.346Z,43.03
2023-03-01T07:31:58.281Z,40.97
2023-03-01T07:34:25.711Z,36.92
2023-03-01T07:36:53.435Z,37.72
2023-03-01T07:39:20.801Z,39.42
2023-03-01T07:41:47.751Z,43.05
2023-03-01T07:44:14.967Z,41.53
2023-03-01T07:46:42.096Z,38.53
2023-03-01T07:49:09.373Z,40.03
2023-03-01T07:51:36.336Z,37.38
2023-03-01T07:54:03.666Z,35.67
2023-03-01T07:56:30.954Z,31.88
2023-03-01T07:59:00.970Z,33.95
2023-03-01T08:01:28.108Z,30.92
2023-03-01T08:03:55.350Z,35.10
2023-03-01T08:06:22.476Z,32.30
2023-03-01T08:08:49.713Z,31.48
2023-03-01T08:11:17.057Z,21.33
2023-03-01T08:13:44.830Z,18.08
2023-03-01T08:16:15.520Z,23.60
2023-03-01T08:18:44.198Z,19.02
2023-03-01T08:21:17.276Z,17.92
2023-03-01T08:23:44.906Z,16.50
2023-03-01T08:26:15.065Z,23.05
2023-03-01T08:28:43.124Z,18.13
2023-03-01T08:31:29.712Z,16.38
2023-03-01T08:34:00.596Z,19.02
2023-03-01T08:36:34.071Z,21.42
2023-03-01T08:39:01.463Z,28.35
2023-03-01T08:41:28.606Z,18.90
2023-03-01T08:43:59.818Z,19.42
2023-03-01T08:46:32.923Z,17.10
2023-03-01T08:49:00.668Z,20.35
2023-03-01T08:51:28.052Z,19.65
2023-03-01T08:53:55.294Z,41.38
2023-03-01T08:56:22.189Z,21.23
2023-03-01T08:58:50.202Z,20.92
2023-03-01T09:01:19.812Z,20.42
2023-03-01T09:03:47.533Z,23.13
2023-03-01T09:06:15.533Z,21.83
2023-03-01T09:08:45.495Z,25.67
2023-03-01T09:11:16.442Z,23.38
2023-03-01T09:13:44.578Z,26.67
2023-03-01T09:16:14.192Z,26.40
2023-03-01T09:18:44.822Z,21.15
2023-03-01T09:21:17.388Z,23.17
2023-03-01T09:23:46.854Z,20.23
2023-03-01T09:26:22.372Z,27.27
2023-03-01T09:28:52.802Z,50.97
2023-03-01T09:31:24.678Z,25.52
2023-03-01T09:33:56.949Z,49.42
2023-03-01T09:36:31.612Z,37.90
2023-03-01T09:39:00.244Z,28.35
2023-03-01T09:41:47.771Z,19.60
2023-03-01T09:44:37.174Z,49.73
2023-03-01T09:47:04.820Z,28.38
2023-03-01T09:49:40.078Z,27.98
2023-03-01T09:52:39.379Z,19.73
2023-03-01T09:55:17.340Z,21.80
2023-03-01T09:57:52.288Z,24.10
2023-03-01T10:00:48.428Z,22.35
2023-03-01T10:04:12.347Z,22.63
2023-03-01T10:06:51.872Z,23.27
2023-03-01T10:09:19.857Z,21.40
2023-03-01T10:11:51.992Z,21.65
2023-03-01T10:14:33.792Z,21.05
2023-03-01T10:17:26.970Z,25.40
2023-03-01T10:19:53.922Z,23.75
2023-03-01T10:22:30.396Z,24.98
2023-03-01T10:25:04.222Z,23.70
2023-03-01T10:27:48.723Z,26.67
2023-03-01T10:30:36.511Z,21.83
2023-03-01T10:33:20.600Z,23.02
2023-03-01T10:35:49.524Z,24.02
2023-03-01T10:38:20.341Z,22.60
2023-03-01T10:40:53.493Z,56.35
2023-03-01T10:43:21.750Z,26.55
2023-03-01T10:45:49.303Z,23.02
2023-03-01T10:48:28.656Z,23.92
2023-03-01T10:50:58.620Z,26.05
2023-03-01T10:53:30.680Z,28.10
2023-03-01T10:56:01.545Z,27.13
2023-03-01T10:58:29.899Z,21.63
2023-03-01T11:01:05.947Z,23.73
2023-03-01T11:03:38.895Z,25.83
2023-03-01T11:06:12.142Z,21.60
2023-03-01T11:08:48.273Z,23.20
2023-03-01T11:11:36.026Z,25.20
2023-03-01T11:14:26.414Z,22.48
2023-03-01T11:17:04.515Z,19.85
2023-03-01T11:19:32.335Z,20.42
2023-03-01T11:22:05.407Z,18.30
2023-03-01T11:24:42.273Z,18.13
2023-03-01T11:27:32.885Z,19.25
2023-03-01T11:30:00.006Z,22.90
2023-03-01T11:32:34.225Z,17.83
2023-03-01T11:35:11.428Z,21.83
2023-03-01T11:37:45.487Z,20.40
2023-03-01T11:40:18.269Z,19.27
2023-03-01T11:42:51.116Z,20.60
2023-03-01T11:45:18.390Z,19.70
2023-03-01T11:47:57.981Z,25.38
2023-03-01T11:50:39.679Z,40.60
2023-03-01T11:53:27.928Z,26.05
2023-03-01T11:56:26.399Z,21.05
2023-03-01T11:59:30.634Z,22.08
2023-03-01T12:02:06.601Z,25.08
2023-03-01T12:05:11.171Z,31.17
2023-03-01T12:08:05.763Z,55.05
2023-03-01T12:11:01.262Z,89.03
2023-03-01T12:13:34.397Z,63.25
2023-03-01T12:16:13.082Z,27.55
2023-03-01T12:21:43.477Z,27.95
2023-03-01T12:24:30.034Z,25.50
2023-03-01T12:27:34.682Z,29.58
2023-03-01T12:30:23.766Z,27.63
2023-03-01T12:33:15.585Z,27.52
2023-03-01T12:36:15.586Z,29.67
2023-03-01T12:38:44.265Z,27.83
2023-03-01T12:44:02.320Z,28.42
2023-03-01T12:47:00.521Z,31.05
2023-03-01T12:49:37.330Z,28.87
2023-03-01T12:52:30.395Z,30.48
2023-03-01T12:55:02.210Z,27.75
2023-03-01T12:57:41.574Z,28.27
2023-03-01T13:00:36.750Z,31.33
2023-03-01T13:03:22.940Z,29.13
2023-03-01T13:05:55.697Z,83.38
2023-03-01T13:08:34.135Z,27.60
2023-03-01T13:11:04.749Z,40.22
2023-03-01T13:13:32.715Z,31.35
2023-03-01T13:16:22.524Z,31.17
2023-03-01T13:18:49.806Z,29.20
2023-03-01T13:21:31.496Z,27.30
2023-03-01T13:23:58.671Z,25.60
2023-03-01T13:26:25.628Z,29.73
2023-03-01T13:28:58.307Z,23.27
2023-03-01T13:31:48.490Z,34.63
2023-03-01T13:34:53.023Z,68.18
2023-03-01T13:37:27.000Z,27.75
2023-03-01T13:39:54.285Z,29.38
2023-03-01T13:42:38.493Z,29.60
2023-03-01T13:45:19.977Z,24.58
2023-03-01T13:47:50.355Z,27.90
2023-03-01T13:50:22.163Z,27.25
2023-03-01T13:53:06.115Z,26.10
2023-03-01T13:55:44.001Z,30.17
2023-03-01T13:58:31.789Z,25.50
2023-03-01T14:01:08.270Z,28.75
2023-03-01T14:03:42.842Z,31.98
2023-03-01T14:06:19.101Z,30.05
2023-03-01T14:08:50.584Z,27.85
2023-03-01T14:11:39.357Z,31.23
2023-03-01T14:14:21.833Z,28.52
2023-03-01T14:17:14.160Z,31.60
2023-03-01T14:19:45.930Z,36.33
2023-03-01T14:22:26.173Z,25.75
2023-03-01T14:24:56.857Z,26.27
2023-03-01T14:27:45.801Z,32.03
2023-03-01T14:30:20.313Z,26.55
2023-03-01T14:33:07.425Z,30.35
2023-03-01T14:35:36.447Z,26.67
2023-03-01T14:40:37.113Z,172.27
2023-03-01T14:43:12.631Z,26.45
2023-03-01T14:45:39.692Z,34.83
2023-03-01T14:48:08.599Z,27.83
2023-03-01T14:50:37.371Z,29.92
2023-03-01T14:53:08.880Z,29.60
2023-03-01T14:55:39.791Z,27.70
2023-03-01T14:58:12.604Z,43.65
2023-03-01T15:00:44.689Z,60.85
2023-03-01T15:03:26.894Z,35.05
2023-03-01T15:05:54.727Z,43.05
2023-03-01T15:08:25.695Z,47.42
2023-03-01T15:11:02.963Z,37.87
2023-03-01T15:13:35.044Z,29.98
2023-03-01T15:16:10.735Z,36.92
2023-03-01T15:18:38.944Z,42.67
2023-03-01T15:21:30.669Z,34.70
2023-03-01T15:24:20.463Z,43.40
2023-03-01T15:26:54.820Z,43.57
2023-03-01T15:29:31.039Z,40.47
2023-03-01T15:32:06.068Z,37.80
2023-03-01T15:34:38.495Z,30.00
2023-03-01T15:37:28.414Z,32.05
2023-03-01T15:39:58.149Z,34.17
2023-03-01T15:42:28.028Z,51.07
2023-03-01T15:45:18.042Z,46.17
2023-03-01T15:47:51.142Z,41.97
2023-03-01T15:50:38.586Z,44.37
2023-03-01T15:53:09.170Z,48.93
2023-03-01T15:55:36.639Z,55.90
2023-03-01T15:58:21.504Z,88.50
2023-03-01T16:01:00.906Z,63.40
2023-03-01T16:03:28.561Z,231.27
2023-03-01T16:05:55.801Z,110.57
2023-03-01T16:08:22.737Z,211.03
2023-03-01T16:10:52.254Z,205.33
2023-03-01T16:13:20.306Z,119.37
2023-03-01T16:15:48.203Z,130.02
2023-03-01T16:18:15.143Z,99.67
2023-03-01T16:20:42.302Z,124.33
2023-03-01T16:23:11.366Z,449.30
2023-03-01T16:25:39.008Z,403.60
2023-03-01T16:28:10.164Z,463.90
2023-03-01T16:30:40.557Z,493.53
2023-03-01T16:33:26.828Z,364.30
2023-03-01T16:35:56.473Z,262.88
2023-03-01T16:38:23.594Z,277.23
2023-03-01T16:40:52.565Z,290.50
2023-03-01T16:43:19.520Z,342.52
2023-03-01T16:45:47.627Z,377.33
2023-03-01T16:48:15.177Z,391.77
2023-03-01T16:50:42.548Z,371.70
2023-03-01T16:53:09.617Z,351.03
2023-03-01T16:55:36.963Z,330.13
2023-03-01T16:58:05.410Z,295.03
2023-03-01T17:00:32.719Z,366.65
2023-03-01T17:02:59.726Z,339.83
2023-03-01T17:05:27.234Z,260.70
2023-03-01T17:07:56.704Z,251.63
2023-03-01T17:10:24.200Z,257.00
2023-03-01T17:12:51.672Z,245.03
2023-03-01T17:15:18.971Z,240.10
2023-03-01T17:17:45.915Z,227.03
2023-03-01T17:20:13.780Z,197.37
2023-03-01T17:22:40.659Z,189.30
2023-03-01T17:25:12.297Z,225.63
2023-03-01T17:27:40.001Z,272.97
2023-03-01T17:30:11.425Z,235.27
2023-03-01T17:32:38.632Z,235.90
2023-03-01T17:35:06.521Z,237.97
2023-03-01T17:37:33.653Z,219.17
2023-03-01T17:40:00.808Z,208.73
2023-03-01T17:42:27.753Z,222.57
2023-03-01T17:44:54.952Z,203.03
2023-03-01T17:47:21.853Z,209.70
2023-03-01T17:49:49.020Z,208.30
2023-03-01T17:52:16.052Z,193.63
2023-03-01T17:54:43.273Z,150.33
2023-03-01T17:57:10.178Z,143.23
2023-03-01T17:59:37.680Z,134.30
2023-03-01T18:02:04.586Z,170.40
2023-03-01T18:04:32.587Z,199.33
2023-03-01T18:07:00.032Z,216.00
2023-03-01T18:09:28.386Z,244.53
2023-03-01T18:11:55.341Z,199.55
2023-03-01T18:14:22.757Z,221.73
2023-03-01T18:16:50.962Z,204.52
2023-03-01T18:19:18.289Z,179.47
2023-03-01T18:21:45.413Z,185.93
2023-03-01T18:24:12.597Z,180.17
2023-03-01T18:26:40.361Z,165.97
2023-03-01T18:29:08.373Z,175.93
2023-03-01T18:31:35.570Z,173.70
2023-03-01T18:34:02.998Z,156.80
2023-03-01T18:36:33.240Z,146.30
2023-03-01T18:39:03.508Z,157.90
2023-03-01T18:41:30.860Z,143.37
2023-03-01T18:43:58.585Z,146.73
2023-03-01T18:46:26.024Z,143.40
2023-03-01T18:48:54.507Z,141.47
2023-03-01T18:51:25.496Z,137.07
2023-03-01T18:53:52.956Z,135.67
2023-03-01T18:56:19.837Z,131.07
2023-03-01T18:58:47.287Z,148.17
2023-03-01T19:01:20.080Z,163.07
2023-03-01T19:03:47.893Z,154.43
2023-03-01T19:06:15.272Z,131.60
2023-03-01T19:08:44.437Z,124.10
2023-03-01T19:11:13.258Z,121.38
2023-03-01T19:16:16.405Z,414.03
2023-03-01T19:18:50.256Z,235.37
2023-03-01T19:21:19.934Z,170.83
2023-03-01T19:23:48.870Z,167.57
2023-03-01T19:26:18.518Z,184.82
2023-03-01T19:28:46.558Z,166.13
2023-03-01T19:31:16.750Z,203.20
2023-03-01T19:33:44.333Z,175.33
2023-03-01T19:36:14.671Z,175.27
2023-03-01T19:38:43.141Z,206.73
2023-03-01T19:41:16.923Z,192.57
2023-03-01T19:43:45.679Z,201.13
2023-03-01T19:46:15.055Z,192.60
2023-03-01T19:48:44.587Z,171.77
2023-03-01T19:51:12.522Z,200.60
2023-03-01T19:53:40.765Z,194.20
2023-03-01T19:56:08.940Z,203.00
2023-03-01T19:58:36.649Z,215.82
2023-03-01T20:01:03.680Z,190.67
2023-03-01T20:03:33.857Z,187.67
2023-03-01T20:06:02.689Z,165.40
2023-03-01T20:08:32.072Z,146.90
2023-03-01T20:11:04.483Z,135.63
2023-03-01T20:13:31.715Z,137.23
2023-03-01T20:15:58.806Z,126.27
2023-03-01T20:18:26.809Z,124.67
2023-03-01T20:20:54.101Z,137.33
2023-03-01T20:23:22.213Z,136.33
2023-03-01T20:25:49.242Z,136.77
2023-03-01T20:28:17.975Z,137.17
2023-03-01T20:30:45.801Z,155.25
2023-03-01T20:33:13.159Z,165.15
2023-03-01T20:35:43.943Z,159.07
2023-03-01T20:38:11.177Z,151.97
2023-03-01T20:40:38.402Z,155.27
2023-03-01T20:43:05.612Z,144.80
2023-03-01T20:45:32.518Z,154.23
2023-03-01T20:47:59.749Z,140.17
2023-03-01T20:50:26.715Z,137.77
2023-03-01T20:52:53.984Z,141.37
2023-03-01T20:55:21.044Z,139.63
2023-03-01T20:57:48.238Z,134.50
2023-03-01T21:00:15.454Z,126.37
2023-03-01T21:02:44.041Z,121.97
2023-03-01T21:05:11.032Z,106.50
2023-03-01T21:07:38.371Z,96.13
2023-03-01T21:10:05.637Z,97.07
2023-03-01T21:12:32.910Z,93.30
2023-03-01T21:14:59.847Z,93.57
2023-03-01T21:17:26.996Z,108.80
2023-03-01T21:19:53.909Z,106.13
2023-03-01T21:22:21.070Z,114.40
2023-03-01T21:24:50.191Z,117.90
2023-03-01T21:27:18.863Z,104.90
2023-03-01T21:29:47.144Z,106.87
2023-03-01T21:32:14.921Z,106.50
2023-03-01T21:34:42.203Z,101.80
2023-03-01T21:37:10.790Z,110.73
2023-03-01T21:39:38.030Z,95.13
2023-03-01T21:42:06.010Z,88.43
2023-03-01T21:44:33.800Z,93.97
2023-03-01T21:47:01.398Z,86.50
2023-03-01T21:49:28.415Z,85.03
2023-03-01T21:51:56.082Z,76.57
2023-03-01T21:54:22.998Z,76.17
2023-03-01T21:56:51.106Z,84.77
2023-03-01T21:59:20.958Z,87.17
2023-03-01T22:01:49.654Z,95.77
2023-03-01T22:04:17.130Z,103.18
2023-03-01T22:06:46.835Z,101.13
2023-03-01T22:09:19.262Z,97.33
2023-03-01T22:11:54.015Z,108.07
2023-03-01T22:14:21.906Z,94.47
2023-03-01T22:16:51.756Z,105.28
2023-03-01T22:19:18.999Z,103.17
2023-03-01T22:21:49.886Z,96.60
2023-03-01T22:24:19.231Z,92.37
2023-03-01T22:26:48.400Z,91.73
2023-03-01T22:29:25.313Z,87.03
2023-03-01T22:31:53.822Z,92.67
2023-03-01T22:34:21.203Z,91.10
2023-03-01T22:36:48.946Z,102.30
2023-03-01T22:39:19.132Z,116.73
2023-03-01T22:41:47.759Z,106.87
2023-03-01T22:44:18.260Z,117.13
2023-03-01T22:46:45.570Z,126.83
2023-03-01T22:49:12.716Z,100.20
2023-03-01T22:51:42.459Z,101.77
2023-03-01T22:54:11.095Z,94.40
2023-03-01T22:59:11.455Z,85.77
2023-03-01T23:01:40.190Z,83.87
2023-03-01T23:04:07.532Z,87.47
2023-03-01T23:06:50.219Z,89.50
2023-03-01T23:09:30.973Z,81.27
2023-03-01T23:11:59.973Z,81.53
2023-03-01T23:14:31.247Z,91.97
2023-03-01T23:17:00.733Z,90.30
2023-03-01T23:19:28.768Z,83.27
2023-03-01T23:21:57.296Z,93.68
2023-03-01T23:24:31.881Z,79.07
2023-03-01T23:27:03.047Z,90.40
2023-03-01T23:29:31.314Z,74.70
2023-03-01T23:31:59.879Z,70.18
2023-03-01T23:34:27.493Z,76.72
2023-03-01T23:36:55.755Z,67.30
2023-03-01T23:39:22.781Z,72.50
2023-03-01T23:41:50.200Z,69.43
2023-03-01T23:44:19.536Z,73.23
2023-03-01T23:46:47.961Z,66.97
2023-03-01T23:49:18.787Z,62.95
2023-03-01T23:51:49.703Z,62.87
2023-03-01T23:54:22.028Z,57.50
2023-03-01T23:56:49.360Z,64.37
2023-03-01T23:59:19.253Z,61.07
